Terminal Aerodrome Forecast
Issued by NWS

Home | Current Version | Previous Version | Text Only | Print | Product List | Glossary On
Versions: 1 2 3 4 5 6 7 8 9 10 11 12 13 14 15 16 17 18 19 20
000
FTUS42 KTBW 290900 AAB
TAFLAL
TAF AMD
KLAL 290901Z 2909/3006 VRB03KT 5SM BR SCT007 BKN020
      TEMPO 2909/2913 2SM BR BKN005
     FM291500 20007KT P6SM BKN025 BKN250
     FM291900 22008KT P6SM BKN050 BKN250
     FM300100 VRB04KT 6SM BR FEW010 SCT025 BKN050
      AMD NOT SKED TIL 291200=

USA.gov is the U.S. government's official web portal to all federal, state and local government web resources and services.